sensor_id;sensor_type;location;lat;lon;timestamp;pressure;altitude;pressure_sealevel;temperature;humidity
63097;BME280;49185;42.320;23.198;2023-05-10T00:01:20;95021.88;;;8.17;93.86
63097;BME280;49185;42.320;23.198;2023-05-10T00:03:45;95024.97;;;8.14;93.58
63097;BME280;49185;42.320;23.198;2023-05-10T00:06:12;95024.13;;;8.02;94.87
63097;BME280;49185;42.320;23.198;2023-05-10T00:08:37;95025.19;;;8.12;93.26
63097;BME280;49185;42.320;23.198;2023-05-10T00:11:03;95015.88;;;8.10;94.03
63097;BME280;49185;42.320;23.198;2023-05-10T00:13:28;95010.50;;;7.98;94.63
63097;BME280;49185;42.320;23.198;2023-05-10T00:15:54;95010.69;;;8.15;92.96
63097;BME280;49185;42.320;23.198;2023-05-10T00:18:19;95005.00;;;7.99;94.08
63097;BME280;49185;42.320;23.198;2023-05-10T00:20:45;95007.59;;;7.88;95.06
63097;BME280;49185;42.320;23.198;2023-05-10T00:23:10;95011.94;;;8.01;93.87
63097;BME280;49185;42.320;23.198;2023-05-10T00:25:35;95013.00;;;8.11;93.00
63097;BME280;49185;42.320;23.198;2023-05-10T00:28:01;95008.94;;;7.78;95.26
63097;BME280;49185;42.320;23.198;2023-05-10T00:30:27;95000.41;;;7.76;95.28
63097;BME280;49185;42.320;23.198;2023-05-10T00:32:52;95005.28;;;7.79;95.02
63097;BME280;49185;42.320;23.198;2023-05-10T00:35:18;95005.78;;;7.88;95.18
63097;BME280;49185;42.320;23.198;2023-05-10T00:37:43;95008.34;;;8.07;93.56
63097;BME280;49185;42.320;23.198;2023-05-10T00:40:09;95001.13;;;8.14;92.93
63097;BME280;49185;42.320;23.198;2023-05-10T00:42:34;95004.84;;;7.94;93.25
63097;BME280;49185;42.320;23.198;2023-05-10T00:45:00;95000.13;;;7.96;92.33
63097;BME280;49185;42.320;23.198;2023-05-10T00:47:25;94999.06;;;8.16;91.79
63097;BME280;49185;42.320;23.198;2023-05-10T00:49:51;95001.00;;;8.09;91.92
63097;BME280;49185;42.320;23.198;2023-05-10T00:52:17;94987.13;;;7.95;92.67
63097;BME280;49185;42.320;23.198;2023-05-10T00:54:42;94994.97;;;7.90;92.56
63097;BME280;49185;42.320;23.198;2023-05-10T00:57:08;94992.41;;;7.95;92.31
63097;BME280;49185;42.320;23.198;2023-05-10T00:59:33;94997.97;;;7.93;92.17
63097;BME280;49185;42.320;23.198;2023-05-10T01:01:59;95003.06;;;8.07;92.34
63097;BME280;49185;42.320;23.198;2023-05-10T01:04:24;94991.97;;;7.98;90.77
63097;BME280;49185;42.320;23.198;2023-05-10T01:06:53;94990.97;;;8.11;91.14
63097;BME280;49185;42.320;23.198;2023-05-10T01:09:20;94988.91;;;8.13;90.47
63097;BME280;49185;42.320;23.198;2023-05-10T01:11:47;94984.94;;;8.04;91.16
63097;BME280;49185;42.320;23.198;2023-05-10T01:14:14;94984.38;;;8.02;90.38
63097;BME280;49185;42.320;23.198;2023-05-10T01:16:44;94987.34;;;8.35;88.74
63097;BME280;49185;42.320;23.198;2023-05-10T01:19:26;94981.19;;;8.11;89.91
63097;BME280;49185;42.320;23.198;2023-05-10T01:33:17;94968.06;;;8.16;89.15
63097;BME280;49185;42.320;23.198;2023-05-10T01:38:42;94979.06;;;7.90;89.47
63097;BME280;49185;42.320;23.198;2023-05-10T01:41:14;94974.00;;;8.00;89.31
63097;BME280;49185;42.320;23.198;2023-05-10T01:43:57;94972.13;;;7.89;90.05
63097;BME280;49185;42.320;23.198;2023-05-10T01:46:34;94969.06;;;8.04;89.30
63097;BME280;49185;42.320;23.198;2023-05-10T01:49:01;94967.06;;;7.87;90.04
63097;BME280;49185;42.320;23.198;2023-05-10T01:51:31;94960.34;;;7.73;90.95
63097;BME280;49185;42.320;23.198;2023-05-10T01:54:02;94966.44;;;7.73;90.62
63097;BME280;49185;42.320;23.198;2023-05-10T01:56:32;94971.00;;;7.66;90.91
63097;BME280;49185;42.320;23.198;2023-05-10T01:58:59;94973.56;;;7.73;90.54
63097;BME280;49185;42.320;23.198;2023-05-10T02:01:26;94968.00;;;7.63;90.52
63097;BME280;49185;42.320;23.198;2023-05-10T02:03:53;94966.78;;;7.77;88.99
63097;BME280;49185;42.320;23.198;2023-05-10T02:06:21;94978.28;;;7.71;89.07
63097;BME280;49185;42.320;23.198;2023-05-10T02:08:49;94973.47;;;7.49;90.41
63097;BME280;49185;42.320;23.198;2023-05-10T02:11:17;94980.59;;;7.49;89.48
63097;BME280;49185;42.320;23.198;2023-05-10T02:13:44;94973.91;;;7.46;89.61
63097;BME280;49185;42.320;23.198;2023-05-10T02:16:11;94982.69;;;7.28;89.84
63097;BME280;49185;42.320;23.198;2023-05-10T02:18:40;94986.06;;;7.17;90.20
63097;BME280;49185;42.320;23.198;2023-05-10T02:21:07;94982.69;;;7.28;90.38
63097;BME280;49185;42.320;23.198;2023-05-10T02:23:34;94979.97;;;7.16;90.14
63097;BME280;49185;42.320;23.198;2023-05-10T02:26:00;94979.53;;;7.19;90.30
63097;BME280;49185;42.320;23.198;2023-05-10T02:28:27;94979.53;;;7.19;90.19
63097;BME280;49185;42.320;23.198;2023-05-10T02:30:53;94971.44;;;6.96;91.55
63097;BME280;49185;42.320;23.198;2023-05-10T02:33:21;94969.81;;;6.95;90.87
63097;BME280;49185;42.320;23.198;2023-05-10T02:35:47;94970.28;;;6.67;92.26
63097;BME280;49185;42.320;23.198;2023-05-10T02:38:14;94974.69;;;6.73;92.74
63097;BME280;49185;42.320;23.198;2023-05-10T02:40:41;94973.69;;;6.74;91.96
63097;BME280;49185;42.320;23.198;2023-05-10T02:43:09;94982.00;;;6.77;92.75
63097;BME280;49185;42.320;23.198;2023-05-10T02:45:38;94966.25;;;6.64;92.32
63097;BME280;49185;42.320;23.198;2023-05-10T02:48:03;94980.34;;;6.76;91.27
63097;BME280;49185;42.320;23.198;2023-05-10T02:50:32;94982.13;;;6.64;92.13
63097;BME280;49185;42.320;23.198;2023-05-10T02:53:03;94984.78;;;6.64;91.29
63097;BME280;49185;42.320;23.198;2023-05-10T02:55:37;94980.06;;;6.66;91.58
63097;BME280;49185;42.320;23.198;2023-05-10T02:58:04;94989.72;;;6.54;92.24
63097;BME280;49185;42.320;23.198;2023-05-10T03:00:29;94982.19;;;6.76;91.13
63097;BME280;49185;42.320;23.198;2023-05-10T03:02:55;94991.91;;;6.57;92.45
63097;BME280;49185;42.320;23.198;2023-05-10T03:05:20;94982.13;;;6.64;91.73
63097;BME280;49185;42.320;23.198;2023-05-10T03:07:46;94982.38;;;6.56;91.77
63097;BME280;49185;42.320;23.198;2023-05-10T03:10:13;94980.06;;;6.66;91.66
63097;BME280;49185;42.320;23.198;2023-05-10T03:13:35;94989.63;;;6.42;93.09
63097;BME280;49185;42.320;23.198;2023-05-10T03:15:59;94983.56;;;6.60;90.65
63097;BME280;49185;42.320;23.198;2023-05-10T03:18:36;94983.53;;;6.41;92.37
63097;BME280;49185;42.320;23.198;2023-05-10T03:21:03;94991.25;;;6.43;91.30
63097;BME280;49185;42.320;23.198;2023-05-10T03:23:36;94986.38;;;6.40;93.00
63097;BME280;49185;42.320;23.198;2023-05-10T03:26:07;94994.16;;;6.35;93.16
63097;BME280;49185;42.320;23.198;2023-05-10T03:28:34;94986.84;;;6.30;92.32
63097;BME280;49185;42.320;23.198;2023-05-10T03:30:59;94993.66;;;6.44;91.95
63097;BME280;49185;42.320;23.198;2023-05-10T03:33:25;94995.81;;;6.54;91.04
63097;BME280;49185;42.320;23.198;2023-05-10T03:35:51;94991.50;;;6.60;90.58
63097;BME280;49185;42.320;23.198;2023-05-10T03:38:16;95004.66;;;6.41;91.54
63097;BME280;49185;42.320;23.198;2023-05-10T03:40:42;94997.50;;;6.49;91.26
63097;BME280;49185;42.320;23.198;2023-05-10T03:43:07;94996.69;;;6.48;91.55
63097;BME280;49185;42.320;23.198;2023-05-10T03:45:33;94995.66;;;6.49;91.27
63097;BME280;49185;42.320;23.198;2023-05-10T03:47:58;94996.53;;;6.68;89.79
63097;BME280;49185;42.320;23.198;2023-05-10T03:50:24;94992.56;;;6.77;89.95
63097;BME280;49185;42.320;23.198;2023-05-10T03:52:49;94996.56;;;6.61;89.63
63097;BME280;49185;42.320;23.198;2023-05-10T03:55:15;94998.59;;;6.84;89.03
63097;BME280;49185;42.320;23.198;2023-05-10T03:57:40;95013.53;;;6.54;89.38
63097;BME280;49185;42.320;23.198;2023-05-10T04:00:06;95005.75;;;6.59;89.99
63097;BME280;49185;42.320;23.198;2023-05-10T04:02:32;95013.34;;;6.49;90.51
63097;BME280;49185;42.320;23.198;2023-05-10T04:04:57;95010.28;;;6.77;88.87
63097;BME280;49185;42.320;23.198;2023-05-10T04:07:22;94999.09;;;6.75;88.95
63097;BME280;49185;42.320;23.198;2023-05-10T04:09:48;95016.03;;;6.67;88.71
63097;BME280;49185;42.320;23.198;2023-05-10T04:12:13;95011.06;;;6.77;88.51
63097;BME280;49185;42.320;23.198;2023-05-10T04:14:39;95007.66;;;6.52;89.79
63097;BME280;49185;42.320;23.198;2023-05-10T04:17:04;95009.00;;;6.79;87.73
63097;BME280;49185;42.320;23.198;2023-05-10T04:19:30;95014.03;;;6.88;87.94
63097;BME280;49185;42.320;23.198;2023-05-10T04:21:56;95018.38;;;6.82;88.49
63097;BME280;49185;42.320;23.198;2023-05-10T04:24:21;95017.94;;;6.60;89.76
63097;BME280;49185;42.320;23.198;2023-05-10T04:26:47;95016.91;;;6.86;87.98
63097;BME280;49185;42.320;23.198;2023-05-10T04:29:12;95019.75;;;6.84;88.20
63097;BME280;49185;42.320;23.198;2023-05-10T04:31:38;95021.28;;;6.92;88.28
63097;BME280;49185;42.320;23.198;2023-05-10T04:34:03;95020.63;;;6.78;88.44
63097;BME280;49185;42.320;23.198;2023-05-10T04:36:28;95019.09;;;6.89;87.84
63097;BME280;49185;42.320;23.198;2023-05-10T04:38:54;95023.66;;;6.82;87.86
63097;BME280;49185;42.320;23.198;2023-05-10T04:41:20;95023.88;;;6.80;88.33
63097;BME280;49185;42.320;23.198;2023-05-10T04:43:45;95015.78;;;6.75;88.54
63097;BME280;49185;42.320;23.198;2023-05-10T04:46:10;95015.56;;;6.77;87.94
63097;BME280;49185;42.320;23.198;2023-05-10T04:48:36;95011.59;;;6.68;89.00
63097;BME280;49185;42.320;23.198;2023-05-10T04:51:01;95015.44;;;6.65;88.84
63097;BME280;49185;42.320;23.198;2023-05-10T04:53:26;95020.72;;;6.90;87.83
63097;BME280;49185;42.320;23.198;2023-05-10T04:55:52;95018.16;;;6.83;87.51
63097;BME280;49185;42.320;23.198;2023-05-10T04:58:17;95015.34;;;6.78;87.46
63097;BME280;49185;42.320;23.198;2023-05-10T05:00:43;95022.56;;;6.90;87.39
63097;BME280;49185;42.320;23.198;2023-05-10T05:03:08;95026.31;;;6.82;88.28
63097;BME280;49185;42.320;23.198;2023-05-10T05:05:33;95022.06;;;6.99;87.22
63097;BME280;49185;42.320;23.198;2023-05-10T05:07:59;95021.28;;;7.17;86.30
63097;BME280;49185;42.320;23.198;2023-05-10T05:10:24;95015.94;;;6.99;87.22
63097;BME280;49185;42.320;23.198;2023-05-10T05:12:50;95021.25;;;6.99;87.82
63097;BME280;49185;42.320;23.198;2023-05-10T05:15:15;95026.56;;;7.17;86.70
63097;BME280;49185;42.320;23.198;2023-05-10T05:17:41;95033.34;;;7.32;86.91
63097;BME280;49185;42.320;23.198;2023-05-10T05:20:06;95032.66;;;7.18;88.08
63097;BME280;49185;42.320;23.198;2023-05-10T05:22:32;95029.75;;;7.26;86.49
63097;BME280;49185;42.320;23.198;2023-05-10T05:24:57;95033.91;;;7.34;86.36
63097;BME280;49185;42.320;23.198;2023-05-10T05:27:24;95043.44;;;7.72;83.81
63097;BME280;49185;42.320;23.198;2023-05-10T05:29:56;95035.09;;;7.56;83.94
63097;BME280;49185;42.320;23.198;2023-05-10T05:32:22;95036.47;;;7.22;85.52
63097;BME280;49185;42.320;23.198;2023-05-10T05:34:48;95036.25;;;7.23;85.99
63097;BME280;49185;42.320;23.198;2023-05-10T05:37:18;95032.97;;;7.65;84.46
63097;BME280;49185;42.320;23.198;2023-05-10T05:39:44;95044.19;;;7.60;84.50
63097;BME280;49185;42.320;23.198;2023-05-10T05:42:10;95039.72;;;7.43;85.21
63097;BME280;49185;42.320;23.198;2023-05-10T05:44:36;95041.19;;;7.57;84.12
63097;BME280;49185;42.320;23.198;2023-05-10T05:47:02;95046.03;;;7.23;86.82
63097;BME280;49185;42.320;23.198;2023-05-10T05:49:27;95052.22;;;7.54;85.06
63097;BME280;49185;42.320;23.198;2023-05-10T05:51:53;95053.34;;;7.46;86.00
63097;BME280;49185;42.320;23.198;2023-05-10T05:54:18;95063.38;;;7.56;86.22
63097;BME280;49185;42.320;23.198;2023-05-10T05:56:43;95045.28;;;7.71;85.47
63097;BME280;49185;42.320;23.198;2023-05-10T05:59:09;95064.81;;;7.58;85.53
63097;BME280;49185;42.320;23.198;2023-05-10T06:01:34;95047.22;;;7.83;84.30
63097;BME280;49185;42.320;23.198;2023-05-10T06:04:00;95052.41;;;7.89;83.62
63097;BME280;49185;42.320;23.198;2023-05-10T06:06:25;95048.19;;;8.00;83.74
63097;BME280;49185;42.320;23.198;2023-05-10T06:08:51;95046.81;;;7.97;85.06
63097;BME280;49185;42.320;23.198;2023-05-10T06:11:16;95054.09;;;7.84;85.07
63097;BME280;49185;42.320;23.198;2023-05-10T06:13:41;95055.63;;;7.91;83.94
63097;BME280;49185;42.320;23.198;2023-05-10T06:16:07;95063.84;;;8.20;83.24
63097;BME280;49185;42.320;23.198;2023-05-10T06:18:33;95064.34;;;8.29;83.95
63097;BME280;49185;42.320;23.198;2023-05-10T06:20:58;95070.22;;;8.31;83.69
63097;BME280;49185;42.320;23.198;2023-05-10T06:23:24;95069.50;;;7.93;83.06
63097;BME280;49185;42.320;23.198;2023-05-10T06:25:49;95078.53;;;7.86;84.38
63097;BME280;49185;42.320;23.198;2023-05-10T06:28:15;95080.03;;;7.82;84.34
63097;BME280;49185;42.320;23.198;2023-05-10T06:30:40;95081.03;;;7.80;84.78
63097;BME280;49185;42.320;23.198;2023-05-10T06:33:05;95083.47;;;8.01;84.48
63097;BME280;49185;42.320;23.198;2023-05-10T06:35:31;95080.09;;;8.24;82.63
63097;BME280;49185;42.320;23.198;2023-05-10T06:37:56;95078.09;;;8.19;83.16
63097;BME280;49185;42.320;23.198;2023-05-10T06:40:22;95067.06;;;8.52;81.52
63097;BME280;49185;42.320;23.198;2023-05-10T06:42:47;95078.16;;;8.61;81.09
63097;BME280;49185;42.320;23.198;2023-05-10T06:45:14;95069.84;;;8.58;81.53
63097;BME280;49185;42.320;23.198;2023-05-10T06:47:40;95073.03;;;9.13;79.75
63097;BME280;49185;42.320;23.198;2023-05-10T06:50:07;95069.34;;;8.91;80.69
63097;BME280;49185;42.320;23.198;2023-05-10T06:52:33;95072.69;;;8.98;78.34
63097;BME280;49185;42.320;23.198;2023-05-10T06:54:59;95073.63;;;9.16;79.59
63097;BME280;49185;42.320;23.198;2023-05-10T06:57:24;95075.78;;;8.95;80.53
63097;BME280;49185;42.320;23.198;2023-05-10T06:59:49;95074.94;;;8.71;82.24
63097;BME280;49185;42.320;23.198;2023-05-10T07:02:15;95076.47;;;8.79;80.32
63097;BME280;49185;42.320;23.198;2023-05-10T07:04:40;95074.66;;;8.91;80.28
63097;BME280;49185;42.320;23.198;2023-05-10T07:07:06;95074.78;;;9.20;80.04
63097;BME280;49185;42.320;23.198;2023-05-10T07:09:31;95075.69;;;9.02;78.93
63097;BME280;49185;42.320;23.198;2023-05-10T07:11:57;95068.88;;;9.53;77.41
63097;BME280;49185;42.320;23.198;2023-05-10T07:14:23;95064.25;;;9.48;76.61
63097;BME280;49185;42.320;23.198;2023-05-10T07:16:48;95066.34;;;9.99;75.85
63097;BME280;49185;42.320;23.198;2023-05-10T07:19:13;95069.09;;;9.63;76.12
63097;BME280;49185;42.320;23.198;2023-05-10T07:21:39;95063.38;;;9.72;75.06
63097;BME280;49185;42.320;23.198;2023-05-10T07:24:04;95069.94;;;9.93;75.75
63097;BME280;49185;42.320;23.198;2023-05-10T07:26:30;95077.41;;;9.55;76.15
63097;BME280;49185;42.320;23.198;2023-05-10T07:28:55;95071.00;;;9.80;74.47
63097;BME280;49185;42.320;23.198;2023-05-10T07:31:21;95070.59;;;10.00;74.23
63097;BME280;49185;42.320;23.198;2023-05-10T07:33:46;95080.78;;;9.91;74.27
63097;BME280;49185;42.320;23.198;2023-05-10T07:36:11;95086.28;;;10.13;74.00
63097;BME280;49185;42.320;23.198;2023-05-10T07:38:37;95078.19;;;9.67;75.12
63097;BME280;49185;42.320;23.198;2023-05-10T07:41:02;95081.09;;;10.06;75.02
63097;BME280;49185;42.320;23.198;2023-05-10T07:43:28;95071.56;;;10.34;73.71
63097;BME280;49185;42.320;23.198;2023-05-10T07:45:53;95085.94;;;10.50;73.45
63097;BME280;49185;42.320;23.198;2023-05-10T07:48:18;95088.31;;;10.23;72.58
63097;BME280;49185;42.320;23.198;2023-05-10T07:50:44;95085.88;;;10.33;72.66
63097;BME280;49185;42.320;23.198;2023-05-10T07:53:10;95092.75;;;10.75;70.87
63097;BME280;49185;42.320;23.198;2023-05-10T07:55:35;95092.34;;;10.66;70.93
63097;BME280;49185;42.320;23.198;2023-05-10T07:58:01;95081.84;;;10.59;70.63
63097;BME280;49185;42.320;23.198;2023-05-10T08:00:26;95091.16;;;10.91;70.09
63097;BME280;49185;42.320;23.198;2023-05-10T08:02:52;95081.44;;;10.85;69.59
63097;BME280;49185;42.320;23.198;2023-05-10T08:05:17;95088.25;;;11.09;69.00
63097;BME280;49185;42.320;23.198;2023-05-10T08:07:43;95086.22;;;10.99;70.01
63097;BME280;49185;42.320;23.198;2023-05-10T08:10:08;95096.78;;;11.11;68.51
63097;BME280;49185;42.320;23.198;2023-05-10T08:12:35;95089.78;;;11.61;66.44
63097;BME280;49185;42.320;23.198;2023-05-10T08:15:00;95096.22;;;10.92;70.31
63097;BME280;49185;42.320;23.198;2023-05-10T08:17:26;95092.41;;;11.22;69.33
63097;BME280;49185;42.320;23.198;2023-05-10T08:19:51;95107.84;;;11.37;67.55
63097;BME280;49185;42.320;23.198;2023-05-10T08:22:17;95092.59;;;11.32;67.44
63097;BME280;49185;42.320;23.198;2023-05-10T08:24:42;95100.13;;;11.96;66.50
63097;BME280;49185;42.320;23.198;2023-05-10T08:27:08;95108.25;;;11.46;67.48
63097;BME280;49185;42.320;23.198;2023-05-10T08:29:34;95111.41;;;11.09;69.01
63097;BME280;49185;42.320;23.198;2023-05-10T08:31:59;95116.16;;;11.07;70.49
63097;BME280;49185;42.320;23.198;2023-05-10T08:34:24;95118.31;;;10.76;71.28
63097;BME280;49185;42.320;23.198;2023-05-10T08:36:50;95116.78;;;10.51;71.54
63097;BME280;49185;42.320;23.198;2023-05-10T08:39:15;95122.25;;;10.73;70.49
63097;BME280;49185;42.320;23.198;2023-05-10T08:41:43;95121.50;;;10.32;72.93
63097;BME280;49185;42.320;23.198;2023-05-10T08:44:09;95121.41;;;10.56;71.07
63097;BME280;49185;42.320;23.198;2023-05-10T08:46:37;95116.06;;;10.27;72.93
63097;BME280;49185;42.320;23.198;2023-05-10T08:49:03;95125.66;;;10.16;73.63
63097;BME280;49185;42.320;23.198;2023-05-10T08:51:34;95125.66;;;10.28;72.29
63097;BME280;49185;42.320;23.198;2023-05-10T08:54:02;95127.59;;;9.92;74.17
63097;BME280;49185;42.320;23.198;2023-05-10T08:56:28;95119.94;;;10.07;72.72
63097;BME280;49185;42.320;23.198;2023-05-10T08:58:53;95116.19;;;10.78;71.40
63097;BME280;49185;42.320;23.198;2023-05-10T09:01:20;95120.03;;;10.99;69.89
63097;BME280;49185;42.320;23.198;2023-05-10T09:03:46;95123.50;;;10.54;70.89
63097;BME280;49185;42.320;23.198;2023-05-10T09:06:12;95130.06;;;10.80;72.42
63097;BME280;49185;42.320;23.198;2023-05-10T09:08:38;95131.44;;;10.25;72.96
63097;BME280;49185;42.320;23.198;2023-05-10T09:11:04;95122.88;;;10.35;71.70
63097;BME280;49185;42.320;23.198;2023-05-10T09:13:30;95130.41;;;10.38;72.73
63097;BME280;49185;42.320;23.198;2023-05-10T09:15:57;95118.22;;;10.71;71.37
63097;BME280;49185;42.320;23.198;2023-05-10T09:18:23;95124.78;;;10.51;70.75
63097;BME280;49185;42.320;23.198;2023-05-10T09:20:49;95125.94;;;10.55;72.64
63097;BME280;49185;42.320;23.198;2023-05-10T09:23:14;95133.66;;;11.02;69.26
63097;BME280;49185;42.320;23.198;2023-05-10T09:25:41;95125.44;;;10.58;72.31
63097;BME280;49185;42.320;23.198;2023-05-10T09:28:07;95117.34;;;10.24;73.34
63097;BME280;49185;42.320;23.198;2023-05-10T09:30:33;95129.44;;;10.44;72.86
63097;BME280;49185;42.320;23.198;2023-05-10T09:32:59;95123.75;;;11.15;69.78
63097;BME280;49185;42.320;23.198;2023-05-10T09:35:27;95120.59;;;11.18;70.15
63097;BME280;49185;42.320;23.198;2023-05-10T09:37:54;95117.25;;;10.77;70.92
63097;BME280;49185;42.320;23.198;2023-05-10T09:40:22;95120.03;;;10.82;70.63
63097;BME280;49185;42.320;23.198;2023-05-10T09:43:07;95123.34;;;11.06;70.92
63097;BME280;49185;42.320;23.198;2023-05-10T09:45:34;95120.28;;;11.70;68.47
63097;BME280;49185;42.320;23.198;2023-05-10T09:48:01;95114.84;;;11.60;68.54
63097;BME280;49185;42.320;23.198;2023-05-10T09:50:28;95101.63;;;11.70;67.40
63097;BME280;49185;42.320;23.198;2023-05-10T09:53:02;95096.59;;;11.91;68.63
63097;BME280;49185;42.320;23.198;2023-05-10T09:58:06;95091.19;;;13.17;64.23
63097;BME280;49185;42.320;23.198;2023-05-10T10:00:36;95098.03;;;13.02;62.95
63097;BME280;49185;42.320;23.198;2023-05-10T10:03:02;95087.19;;;12.05;66.05
63097;BME280;49185;42.320;23.198;2023-05-10T10:07:57;95091.31;;;12.18;66.23
63097;BME280;49185;42.320;23.198;2023-05-10T10:10:24;95088.69;;;12.45;65.00
63097;BME280;49185;42.320;23.198;2023-05-10T10:12:50;95086.03;;;12.45;64.97
63097;BME280;49185;42.320;23.198;2023-05-10T10:15:16;95083.41;;;12.50;64.80
63097;BME280;49185;42.320;23.198;2023-05-10T10:17:43;95075.81;;;12.64;64.70
63097;BME280;49185;42.320;23.198;2023-05-10T10:20:09;95081.53;;;12.51;64.50
63097;BME280;49185;42.320;23.198;2023-05-10T10:22:36;95083.75;;;12.86;64.23
63097;BME280;49185;42.320;23.198;2023-05-10T10:25:03;95079.34;;;13.35;62.59
63097;BME280;49185;42.320;23.198;2023-05-10T10:35:31;95084.94;;;13.01;62.91
63097;BME280;49185;42.320;23.198;2023-05-10T10:37:57;95086.03;;;13.05;61.59
63097;BME280;49185;42.320;23.198;2023-05-10T10:42:48;95086.75;;;13.65;61.22
63097;BME280;49185;42.320;23.198;2023-05-10T10:45:14;95088.50;;;13.92;60.99
63097;BME280;49185;42.320;23.198;2023-05-10T10:47:39;95088.53;;;13.54;60.89
63097;BME280;49185;42.320;23.198;2023-05-10T10:50:06;95083.25;;;14.17;59.66
63097;BME280;49185;42.320;23.198;2023-05-10T10:52:36;95083.91;;;14.50;58.31
63097;BME280;49185;42.320;23.198;2023-05-10T10:55:06;95088.22;;;15.69;55.15
63097;BME280;49185;42.320;23.198;2023-05-10T11:02:57;95085.22;;;15.97;55.49
63097;BME280;49185;42.320;23.198;2023-05-10T11:07:57;95081.81;;;14.63;58.57
63097;BME280;49185;42.320;23.198;2023-05-10T11:10:24;95078.09;;;15.15;55.96
63097;BME280;49185;42.320;23.198;2023-05-10T11:13:07;95080.47;;;15.47;56.64
63097;BME280;49185;42.320;23.198;2023-05-10T11:15:39;95071.44;;;14.08;60.54
63097;BME280;49185;42.320;23.198;2023-05-10T11:18:23;95080.66;;;14.48;60.31
63097;BME280;49185;42.320;23.198;2023-05-10T11:20:59;95079.16;;;13.99;61.06
63097;BME280;49185;42.320;23.198;2023-05-10T11:23:33;95078.28;;;14.57;59.36
63097;BME280;49185;42.320;23.198;2023-05-10T11:26:12;95074.91;;;14.03;60.38
63097;BME280;49185;42.320;23.198;2023-05-10T11:28:48;95076.81;;;14.08;60.74
63097;BME280;49185;42.320;23.198;2023-05-10T11:31:15;95089.75;;;13.79;62.67
63097;BME280;49185;42.320;23.198;2023-05-10T11:33:49;95086.34;;;13.41;61.92
63097;BME280;49185;42.320;23.198;2023-05-10T11:36:34;95081.66;;;13.26;62.97
63097;BME280;49185;42.320;23.198;2023-05-10T11:39:00;95083.75;;;13.51;62.96
63097;BME280;49185;42.320;23.198;2023-05-10T11:41:28;95081.00;;;13.08;62.45
63097;BME280;49185;42.320;23.198;2023-05-10T11:43:54;95081.88;;;13.52;61.86
63097;BME280;49185;42.320;23.198;2023-05-10T11:46:22;95094.03;;;12.72;64.03
63097;BME280;49185;42.320;23.198;2023-05-10T11:48:52;95088.50;;;12.79;64.19
63097;BME280;49185;42.320;23.198;2023-05-10T11:51:23;95089.63;;;12.88;64.45
63097;BME280;49185;42.320;23.198;2023-05-10T11:53:50;95088.25;;;13.13;64.40
63097;BME280;49185;42.320;23.198;2023-05-10T11:56:17;95076.63;;;12.97;63.87
63097;BME280;49185;42.320;23.198;2023-05-10T11:58:42;95091.78;;;12.10;65.46
63097;BME280;49185;42.320;23.198;2023-05-10T12:01:08;95090.72;;;12.60;65.23
63097;BME280;49185;42.320;23.198;2023-05-10T12:03:35;95084.19;;;12.02;66.89
63097;BME280;49185;42.320;23.198;2023-05-10T12:06:01;95088.41;;;12.20;66.79
63097;BME280;49185;42.320;23.198;2023-05-10T12:08:28;95083.28;;;12.13;66.21
63097;BME280;49185;42.320;23.198;2023-05-10T12:11:07;95079.19;;;12.27;67.11
63097;BME280;49185;42.320;23.198;2023-05-10T12:13:38;95082.94;;;12.31;67.02
63097;BME280;49185;42.320;23.198;2023-05-10T12:16:19;95077.53;;;11.99;67.70
63097;BME280;49185;42.320;23.198;2023-05-10T12:18:45;95070.44;;;12.10;66.17
63097;BME280;49185;42.320;23.198;2023-05-10T12:21:13;95070.78;;;12.68;66.13
63097;BME280;49185;42.320;23.198;2023-05-10T12:23:40;95076.94;;;12.41;65.42
63097;BME280;49185;42.320;23.198;2023-05-10T12:26:06;95081.91;;;12.10;66.26
63097;BME280;49185;42.320;23.198;2023-05-10T12:28:32;95077.53;;;11.82;67.50
63097;BME280;49185;42.320;23.198;2023-05-10T12:30:59;95074.09;;;11.43;69.47
63097;BME280;49185;42.320;23.198;2023-05-10T12:33:25;95066.66;;;11.67;68.09
63097;BME280;49185;42.320;23.198;2023-05-10T12:35:54;95064.00;;;12.06;68.63
63097;BME280;49185;42.320;23.198;2023-05-10T12:38:46;95065.25;;;11.59;69.08
63097;BME280;49185;42.320;23.198;2023-05-10T12:41:13;95056.84;;;11.67;68.39
63097;BME280;49185;42.320;23.198;2023-05-10T12:43:39;95055.59;;;11.53;69.03
63097;BME280;49185;42.320;23.198;2023-05-10T12:48:31;95061.72;;;11.53;69.22
63097;BME280;49185;42.320;23.198;2023-05-10T12:50:57;95058.59;;;12.01;67.38
63097;BME280;49185;42.320;23.198;2023-05-10T12:53:22;95055.25;;;12.10;66.85
63097;BME280;49185;42.320;23.198;2023-05-10T12:55:48;95056.06;;;11.72;68.21
63097;BME280;49185;42.320;23.198;2023-05-10T12:58:13;95043.31;;;11.52;68.62
63097;BME280;49185;42.320;23.198;2023-05-10T13:00:39;95052.63;;;11.71;68.29
63097;BME280;49185;42.320;23.198;2023-05-10T13:03:05;95040.72;;;11.57;69.02
63097;BME280;49185;42.320;23.198;2023-05-10T13:05:33;95038.88;;;12.02;66.50
63097;BME280;49185;42.320;23.198;2023-05-10T13:07:59;95040.31;;;12.09;66.77
63097;BME280;49185;42.320;23.198;2023-05-10T13:10:25;95043.09;;;11.98;66.21
63097;BME280;49185;42.320;23.198;2023-05-10T13:12:51;95027.50;;;11.89;67.65
63097;BME280;49185;42.320;23.198;2023-05-10T13:15:16;95033.00;;;12.54;65.28
63097;BME280;49185;42.320;23.198;2023-05-10T13:17:42;95027.88;;;12.47;65.16
63097;BME280;49185;42.320;23.198;2023-05-10T13:20:08;95014.78;;;12.19;65.42
63097;BME280;49185;42.320;23.198;2023-05-10T13:22:33;95016.91;;;12.17;65.89
63097;BME280;49185;42.320;23.198;2023-05-10T13:24:59;95017.34;;;12.08;66.51
63097;BME280;49185;42.320;23.198;2023-05-10T13:27:24;95016.44;;;11.98;65.77
63097;BME280;49185;42.320;23.198;2023-05-10T13:29:49;95010.16;;;12.09;66.67
63097;BME280;49185;42.320;23.198;2023-05-10T13:32:15;95018.94;;;11.87;66.89
63097;BME280;49185;42.320;23.198;2023-05-10T13:34:40;95011.28;;;11.91;66.31